Angier, North Carolina
Current Conditions -  °F | °C
As of 3:15 AM on Tuesday 27 Jan 2015 (Local Time) from KHRJ Reporting Station
Overcast Overcast  
Wind Chill: 34°   Ceiling: 2800
Heat Index: 39°   Visibility: 10mi
Dew Point: 32°   Wind: 7mph
Humidity: 77%   Direction: 320°NW
Pressure: 29.73"   Gusts: NA
Location:  35.51°N, 78.74°W
Report Text: KHRJ 270815Z AUTO 32006KT 10SM OVC028 04/00 A2973 RMK AO2 T00370000
Loading
Personal Weather Stations






























Interactive Weather Map New forecast layout! Learn more

10-Day Weather Forecast

Advertisements
Track Severe Weather on mobile